Time;durP1;ratioP1;P1;durP2;ratioP2;P2;SDS_P1;SDS_P2;PMS_P1;PMS_P2;Temp;Humidity;BMP_temperature;BMP_pressure;BME280_temperature;BME280_humidity;BME280_pressure;Samples;Min_cycle;Max_cycle;Signal;HPM_P1;HPM_P2
2022/03/09 00:01:38;;;;;;;9.83;5.17;;;;;1.80;101687.00;;;;4907083;29;20242;-67
2022/03/09 00:04:26;;;;;;;8.33;5.00;;;;;1.80;101682.00;;;;4907704;29;20228;-68
2022/03/09 00:07:12;;;;;;;11.23;5.77;;;;;1.60;101679.00;;;;4905030;29;20225;-69
2022/03/09 00:09:58;;;;;;;12.77;5.63;;;;;1.70;101673.00;;;;4900291;29;20232;-68
2022/03/09 00:12:46;;;;;;;9.83;5.00;;;;;1.70;101677.00;;;;4905989;29;20234;-68
2022/03/09 00:15:32;;;;;;;9.80;4.80;;;;;1.50;101687.00;;;;4907649;29;20237;-68
2022/03/09 00:18:19;;;;;;;8.87;5.17;;;;;1.60;101681.00;;;;4907985;29;20799;-68
2022/03/09 00:21:05;;;;;;;8.47;4.83;;;;;1.40;101687.00;;;;4904159;29;20268;-67
2022/03/09 00:23:52;;;;;;;9.03;4.87;;;;;1.50;101683.00;;;;4907545;29;20305;-68
2022/03/09 00:26:38;;;;;;;14.43;5.77;;;;;1.50;101693.00;;;;4907570;29;20241;-67
2022/03/09 00:29:25;;;;;;;10.37;4.90;;;;;1.30;101692.00;;;;4907587;29;20262;-71
2022/03/09 00:32:13;;;;;;;9.87;5.30;;;;;1.40;101696.00;;;;4902132;29;20378;-69
2022/03/09 00:34:59;;;;;;;9.10;4.40;;;;;1.50;101660.00;;;;4903210;29;20392;-69
2022/03/09 00:37:45;;;;;;;10.37;5.13;;;;;1.40;101699.00;;;;4907798;29;20595;-68
2022/03/09 00:40:32;;;;;;;8.67;4.80;;;;;1.30;101702.00;;;;4898182;29;20243;-67
2022/03/09 00:43:18;;;;;;;9.07;5.00;;;;;1.30;101687.00;;;;4908382;29;20237;-69
2022/03/09 00:46:06;;;;;;;7.87;4.97;;;;;1.40;101702.00;;;;4901301;29;20297;-70
2022/03/09 00:48:56;;;;;;;7.30;4.63;;;;;1.50;101700.00;;;;4907144;29;20233;-68
2022/03/09 00:51:42;;;;;;;7.33;4.47;;;;;1.30;101690.00;;;;4904854;29;20229;-68
2022/03/09 00:54:29;;;;;;;11.67;5.47;;;;;1.30;101695.00;;;;4906555;29;20321;-67
2022/03/09 00:57:15;;;;;;;6.87;4.30;;;;;1.20;101690.00;;;;4907850;29;20229;-70
2022/03/09 01:00:01;;;;;;;9.83;4.83;;;;;1.30;101693.00;;;;4899981;29;20233;-68
2022/03/09 01:02:49;;;;;;;12.23;4.90;;;;;1.30;101690.00;;;;4907157;29;20305;-66
2022/03/09 01:05:36;;;;;;;10.67;5.23;;;;;1.10;101687.00;;;;4910620;29;20241;-68
2022/03/09 01:08:22;;;;;;;11.50;5.33;;;;;1.10;101680.00;;;;4913120;29;20313;-68
2022/03/09 01:11:09;;;;;;;9.87;4.83;;;;;1.10;101679.00;;;;4904446;29;20293;-67
2022/03/09 01:13:57;;;;;;;7.10;4.87;;;;;1.10;101690.00;;;;4904104;29;20229;-69
2022/03/09 01:16:43;;;;;;;9.37;4.67;;;;;1.20;101669.00;;;;4895334;29;20234;-66
2022/03/09 01:19:31;;;;;;;6.80;4.33;;;;;1.10;101654.00;;;;4895250;29;20242;-67
2022/03/09 01:22:17;;;;;;;7.83;4.60;;;;;1.10;101673.00;;;;4892616;29;20342;-70
2022/03/09 01:25:05;;;;;;;10.73;5.03;;;;;1.00;101680.00;;;;4894167;29;20789;-71
2022/03/09 01:27:51;;;;;;;8.87;4.70;;;;;0.90;101683.00;;;;4901265;29;20245;-68
2022/03/09 01:30:37;;;;;;;12.33;4.67;;;;;0.70;101686.00;;;;4914863;29;20373;-67
2022/03/09 01:33:24;;;;;;;9.03;4.80;;;;;0.90;101689.00;;;;4895999;29;20242;-67
2022/03/09 01:36:12;;;;;;;8.47;4.83;;;;;0.90;101683.00;;;;4911222;29;20241;-70
2022/03/09 01:38:58;;;;;;;8.73;5.07;;;;;1.00;101691.00;;;;4910294;29;20242;-68
2022/03/09 01:41:45;;;;;;;10.27;5.30;;;;;0.80;101683.00;;;;4905135;29;20312;-68
2022/03/09 01:44:31;;;;;;;8.97;4.80;;;;;0.70;101685.00;;;;4912559;29;20240;-70
2022/03/09 01:47:17;;;;;;;9.27;5.10;;;;;0.90;101672.00;;;;4907352;29;20778;-67
2022/03/09 01:50:05;;;;;;;8.40;4.60;;;;;0.90;101672.00;;;;4902109;29;20310;-67
2022/03/09 01:52:53;;;;;;;9.60;4.80;;;;;0.80;101668.00;;;;4906599;29;20699;-69
2022/03/09 01:55:39;;;;;;;8.90;4.73;;;;;0.80;101663.00;;;;4909859;29;20241;-68
2022/03/09 01:58:25;;;;;;;9.47;5.17;;;;;0.90;101672.00;;;;4910261;29;20233;-69
2022/03/09 02:01:15;;;;;;;6.47;4.73;;;;;0.80;101670.00;;;;4899883;29;20370;-64
2022/03/09 02:04:03;;;;;;;11.03;5.60;;;;;0.70;101670.00;;;;4902936;29;20225;-68
2022/03/09 02:06:49;;;;;;;8.97;5.30;;;;;0.60;101615.00;;;;4910517;29;20883;-67
2022/03/09 02:09:44;;;;;;;9.33;4.23;;;;;0.60;101659.00;;;;4909633;29;20747;-68
2022/03/09 02:12:31;;;;;;;7.80;4.07;;;;;0.50;101672.00;;;;4895798;29;20725;-66
2022/03/09 02:15:19;;;;;;;8.30;4.30;;;;;0.60;101669.00;;;;4866456;29;20289;-65
2022/03/09 02:18:05;;;;;;;7.57;4.87;;;;;0.60;101680.00;;;;4906992;29;20224;-69
2022/03/09 02:20:53;;;;;;;8.30;4.40;;;;;0.80;101682.00;;;;4909680;29;20712;-69
2022/03/09 02:23:41;;;;;;;7.43;5.20;;;;;0.50;101674.00;;;;4910329;29;20285;-65
2022/03/09 02:26:27;;;;;;;7.57;4.77;;;;;0.50;101681.00;;;;4904610;29;20230;-67
2022/03/09 02:29:14;;;;;;;8.73;5.00;;;;;0.50;101673.00;;;;4903646;29;20758;-69
2022/03/09 02:32:01;;;;;;;7.73;4.63;;;;;0.30;101677.00;;;;4909387;29;20760;-69
2022/03/09 02:34:48;;;;;;;7.47;4.60;;;;;0.60;101678.00;;;;4909923;29;20364;-68
2022/03/09 02:37:34;;;;;;;10.00;4.70;;;;;0.30;101675.00;;;;4909714;29;20277;-68
2022/03/09 02:40:22;;;;;;;7.77;4.77;;;;;0.40;101672.00;;;;4912079;29;20245;-68
2022/03/09 02:43:08;;;;;;;7.80;4.40;;;;;0.50;101679.00;;;;4897842;29;20417;-68
2022/03/09 02:45:54;;;;;;;8.43;4.90;;;;;0.40;101673.00;;;;4906006;29;20311;-69
2022/03/09 02:48:40;;;;;;;8.50;4.63;;;;;0.30;101673.00;;;;4908991;29;20342;-67
2022/03/09 02:51:29;;;;;;;8.30;5.57;;;;;0.40;101682.00;;;;4908946;29;20630;-69
2022/03/09 02:54:15;;;;;;;10.97;5.60;;;;;0.30;101677.00;;;;4914421;29;20661;-68
2022/03/09 02:57:04;;;;;;;13.20;5.70;;;;;0.20;101616.00;;;;4908548;29;20233;-70
2022/03/09 02:59:51;;;;;;;9.33;5.43;;;;;0.20;101689.00;;;;4908501;29;20253;-68
2022/03/09 03:02:38;;;;;;;11.20;5.77;;;;;0.20;101653.00;;;;4908921;29;20365;-68
2022/03/09 03:05:24;;;;;;;13.23;5.63;;;;;0.40;101681.00;;;;4910968;29;20245;-69
2022/03/09 03:08:13;;;;;;;10.43;5.37;;;;;0.30;101680.00;;;;4905313;29;20761;-68
2022/03/09 03:10:59;;;;;;;9.40;5.10;;;;;0.30;101673.00;;;;4907263;29;20249;-68
2022/03/09 03:13:49;;;;;;;11.37;6.47;;;;;0.40;101678.00;;;;4901858;29;20234;-68
2022/03/09 03:16:35;;;;;;;10.33;5.13;;;;;0.30;101674.00;;;;4906064;29;20338;-68
2022/03/09 03:19:21;;;;;;;13.10;5.20;;;;;0.20;101666.00;;;;4908418;29;20252;-67
2022/03/09 03:22:07;;;;;;;9.40;5.73;;;;;0.10;101668.00;;;;4899730;29;20236;-68
2022/03/09 03:24:54;;;;;;;9.47;5.07;;;;;0.10;101661.00;;;;4908500;29;20277;-69
2022/03/09 03:27:40;;;;;;;8.63;5.53;;;;;0.10;101660.00;;;;4907918;29;20273;-69
2022/03/09 03:30:28;;;;;;;10.30;4.90;;;;;0.20;101647.00;;;;4898035;29;20868;-69
2022/03/09 03:33:16;;;;;;;9.97;4.93;;;;;0.20;101650.00;;;;4904495;29;20232;-69
2022/03/09 03:36:02;;;;;;;11.37;5.33;;;;;0.10;101654.00;;;;4908409;29;20732;-68
2022/03/09 03:38:49;;;;;;;11.13;5.30;;;;;0.10;101652.00;;;;4910402;29;20343;-67
2022/03/09 03:41:36;;;;;;;9.23;4.87;;;;;0.20;101655.00;;;;4908250;29;20648;-65
2022/03/09 03:44:23;;;;;;;7.67;4.87;;;;;0.00;101653.00;;;;4902831;29;20297;-67
2022/03/09 03:47:10;;;;;;;7.07;4.07;;;;;0.00;101646.00;;;;4901004;29;20300;-68
2022/03/09 03:49:57;;;;;;;8.03;4.70;;;;;0.10;101649.00;;;;4906619;29;20605;-68
2022/03/09 03:52:43;;;;;;;7.97;4.70;;;;;-0.10;101637.00;;;;4910427;29;20614;-65
2022/03/09 03:55:29;;;;;;;8.53;4.73;;;;;-0.10;101634.00;;;;4908074;29;20240;-65
2022/03/09 03:58:17;;;;;;;11.73;5.27;;;;;0.00;101641.00;;;;4901619;29;20636;-69
2022/03/09 04:01:03;;;;;;;11.73;5.80;;;;;0.10;101647.00;;;;4907709;29;20269;-68
2022/03/09 04:03:51;;;;;;;10.70;5.10;;;;;0.00;101647.00;;;;4908020;29;20378;-69
2022/03/09 04:06:37;;;;;;;9.20;4.37;;;;;-0.20;101645.00;;;;4910304;29;20237;-68
2022/03/09 04:09:24;;;;;;;10.33;5.00;;;;;0.00;101657.00;;;;4909956;29;20236;-67
2022/03/09 04:12:10;;;;;;;10.37;5.87;;;;;0.00;101653.00;;;;4900539;29;20237;-66
2022/03/09 04:14:57;;;;;;;9.87;5.53;;;;;0.10;101651.00;;;;4907324;29;20613;-69
2022/03/09 04:17:44;;;;;;;8.93;5.27;;;;;-0.10;101652.00;;;;4906838;29;20229;-68
2022/03/09 04:20:32;;;;;;;8.87;5.20;;;;;-0.20;101657.00;;;;4907720;29;20783;-68
2022/03/09 04:23:18;;;;;;;8.53;5.17;;;;;-0.20;101663.00;;;;4908033;29;20256;-68
2022/03/09 04:26:06;;;;;;;7.53;4.63;;;;;-0.10;101667.00;;;;4907713;29;20358;-68
2022/03/09 04:28:53;;;;;;;8.13;4.67;;;;;-0.20;101658.00;;;;4910731;29;20228;-67
2022/03/09 04:31:40;;;;;;;9.70;4.90;;;;;-0.30;101665.00;;;;4912009;29;20256;-68
2022/03/09 04:34:27;;;;;;;9.67;4.90;;;;;-0.20;101661.00;;;;4907414;29;20362;-69
2022/03/09 04:37:14;;;;;;;7.27;5.50;;;;;-0.10;101655.00;;;;4901039;29;20339;-69
2022/03/09 04:40:01;;;;;;;13.70;6.20;;;;;-0.10;101655.00;;;;4909461;29;20329;-67
2022/03/09 04:42:47;;;;;;;10.47;4.90;;;;;-0.20;101660.00;;;;4885689;29;20272;-67
2022/03/09 04:45:36;;;;;;;10.10;5.77;;;;;-0.10;101660.00;;;;4913879;29;20245;-63
2022/03/09 04:48:22;;;;;;;9.37;5.87;;;;;-0.10;101661.00;;;;4905257;29;20241;-68
2022/03/09 04:51:08;;;;;;;8.60;5.17;;;;;-0.20;101655.00;;;;4913283;29;20839;-69
2022/03/09 04:53:56;;;;;;;10.43;5.27;;;;;-0.20;101661.00;;;;4913388;29;20237;-69
2022/03/09 04:56:42;;;;;;;8.33;5.23;;;;;-0.30;101663.00;;;;4911413;29;20913;-64
2022/03/09 04:59:31;;;;;;;11.37;4.87;;;;;-0.30;101663.00;;;;4913131;29;20238;-68
2022/03/09 05:02:17;;;;;;;10.67;5.40;;;;;-0.50;101661.00;;;;4904543;29;20617;-69
2022/03/09 05:05:05;;;;;;;15.97;5.33;;;;;-0.40;101671.00;;;;4910855;29;20728;-67
2022/03/09 05:07:51;;;;;;;13.47;5.70;;;;;-0.40;101673.00;;;;4910655;29;20241;-69
2022/03/09 05:10:39;;;;;;;9.40;4.93;;;;;-0.30;101608.00;;;;4910714;29;20317;-68
2022/03/09 05:13:25;;;;;;;8.60;5.20;;;;;-0.30;101672.00;;;;4907527;29;20301;-69
2022/03/09 05:16:11;;;;;;;10.30;5.57;;;;;-0.30;101665.00;;;;4907990;29;20237;-69
2022/03/09 05:18:59;;;;;;;10.83;5.50;;;;;-0.30;101677.00;;;;4910508;29;20236;-66
2022/03/09 05:21:45;;;;;;;10.80;5.47;;;;;-0.40;101675.00;;;;4907562;29;20253;-67
2022/03/09 05:24:51;;;;;;;9.43;5.07;;;;;-0.40;101671.00;;;;4902208;29;20304;-70
2022/03/09 05:27:39;;;;;;;9.17;5.30;;;;;-0.20;101684.00;;;;4911330;29;20501;-67
2022/03/09 05:30:26;;;;;;;12.27;5.70;;;;;-0.30;101678.00;;;;4908949;29;20236;-67
2022/03/09 05:33:12;;;;;;;10.43;5.53;;;;;-0.30;101681.00;;;;4903824;29;20249;-68
2022/03/09 05:35:59;;;;;;;9.33;5.63;;;;;-0.40;101672.00;;;;4911905;29;20735;-67
2022/03/09 05:38:45;;;;;;;11.37;5.23;;;;;-0.30;101671.00;;;;4910869;29;20237;-68
2022/03/09 05:41:33;;;;;;;8.03;4.80;;;;;-0.30;101683.00;;;;4912967;29;20240;-67
2022/03/09 05:44:21;;;;;;;9.00;5.60;;;;;-0.40;101675.00;;;;4897130;29;20234;-68
2022/03/09 05:47:07;;;;;;;10.93;5.10;;;;;-0.40;101673.00;;;;4895382;29;20416;-67
2022/03/09 05:49:54;;;;;;;11.07;6.23;;;;;-0.60;101676.00;;;;4909566;29;21053;-69
2022/03/09 05:52:40;;;;;;;10.43;5.53;;;;;-0.60;101686.00;;;;4905449;29;20817;-68
2022/03/09 05:55:26;;;;;;;10.40;4.90;;;;;-0.50;101682.00;;;;4897020;29;20713;-68
2022/03/09 05:58:12;;;;;;;11.47;5.37;;;;;-0.50;101689.00;;;;4910880;29;20290;-68
2022/03/09 06:01:00;;;;;;;14.60;5.70;;;;;-0.50;101696.00;;;;4896604;29;20328;-68
2022/03/09 06:03:46;;;;;;;9.40;5.73;;;;;-0.40;101690.00;;;;4892398;29;20233;-68
2022/03/09 06:06:32;;;;;;;13.37;5.93;;;;;-0.40;101698.00;;;;4899789;29;20232;-69
2022/03/09 06:09:18;;;;;;;8.80;5.57;;;;;-0.60;101699.00;;;;4895478;29;20313;-67
2022/03/09 06:12:09;;;;;;;8.53;4.80;;;;;-0.50;101707.00;;;;4892901;29;20230;-68
2022/03/09 06:14:55;;;;;;;11.33;5.43;;;;;-0.50;101704.00;;;;4899611;29;21010;-69
2022/03/09 06:17:48;;;;;;;10.93;5.90;;;;;-0.40;101697.00;;;;4897334;29;21148;-68
2022/03/09 06:20:35;;;;;;;13.67;5.97;;;;;-0.50;101704.00;;;;4909970;29;20985;-68
2022/03/09 06:23:22;;;;;;;11.33;5.73;;;;;-0.50;101705.00;;;;4902927;29;20245;-68
2022/03/09 06:26:09;;;;;;;11.47;6.47;;;;;-0.40;101701.00;;;;4910000;29;20615;-68
2022/03/09 06:28:55;;;;;;;11.30;6.03;;;;;-0.40;101717.00;;;;4900196;29;20241;-67
2022/03/09 06:31:42;;;;;;;19.13;7.37;;;;;-0.30;101711.00;;;;4898992;29;20234;-68
2022/03/09 06:34:30;;;;;;;14.30;7.40;;;;;-0.20;101718.00;;;;4902494;29;20315;-66
2022/03/09 06:37:17;;;;;;;13.13;7.00;;;;;-0.10;101710.00;;;;4901379;29;20785;-69
2022/03/09 06:40:04;;;;;;;12.93;6.40;;;;;0.10;101717.00;;;;4895752;29;20382;-67
2022/03/09 06:42:51;;;;;;;11.77;6.67;;;;;0.10;101679.00;;;;4909497;29;20308;-66
2022/03/09 06:45:43;;;;;;;23.87;6.63;;;;;0.20;101719.00;;;;4909608;29;20229;-70
2022/03/09 06:48:29;;;;;;;15.93;6.77;;;;;0.20;101714.00;;;;4903328;29;20325;-66
2022/03/09 06:51:19;;;;;;;9.73;6.33;;;;;0.30;101714.00;;;;4898272;29;20319;-68
2022/03/09 06:54:06;;;;;;;13.30;6.30;;;;;0.30;101714.00;;;;4907816;29;20757;-68
2022/03/09 06:56:53;;;;;;;12.73;6.80;;;;;0.50;101714.00;;;;4909033;29;20284;-69
2022/03/09 06:59:42;;;;;;;10.93;5.57;;;;;0.70;101713.00;;;;4908754;29;20241;-69
2022/03/09 07:02:28;;;;;;;12.80;6.43;;;;;0.80;101711.00;;;;4908699;29;20233;-68
2022/03/09 07:05:14;;;;;;;10.17;5.37;;;;;0.80;101720.00;;;;4909059;29;20297;-70
2022/03/09 07:08:02;;;;;;;11.40;6.00;;;;;0.80;101725.00;;;;4902929;29;20238;-69
2022/03/09 07:10:48;;;;;;;12.80;5.80;;;;;0.80;101727.00;;;;4908866;29;21122;-69
2022/03/09 07:13:34;;;;;;;12.10;5.57;;;;;0.80;101725.00;;;;4905747;29;20447;-69
2022/03/09 07:16:20;;;;;;;12.30;6.57;;;;;1.00;101728.00;;;;4907615;29;20233;-69
2022/03/09 07:19:06;;;;;;;9.23;5.70;;;;;1.10;101731.00;;;;4910638;29;20240;-69
2022/03/09 07:21:53;;;;;;;10.97;5.87;;;;;1.10;101728.00;;;;4905353;29;20233;-69
2022/03/09 07:24:41;;;;;;;18.13;6.17;;;;;1.20;101725.00;;;;4903683;29;20233;-70
2022/03/09 07:27:27;;;;;;;9.27;5.50;;;;;1.20;101734.00;;;;4910974;29;20313;-69
2022/03/09 07:30:14;;;;;;;7.93;5.27;;;;;1.40;101733.00;;;;4908392;29;20649;-65
2022/03/09 07:33:00;;;;;;;7.13;4.97;;;;;1.50;101731.00;;;;4904246;29;20344;-70
2022/03/09 07:35:47;;;;;;;9.40;5.87;;;;;1.50;101729.00;;;;4910871;29;20632;-70
2022/03/09 07:38:33;;;;;;;9.30;5.00;;;;;1.60;101732.00;;;;4902207;29;20232;-69
2022/03/09 07:41:21;;;;;;;10.57;5.50;;;;;1.80;101737.00;;;;4901129;29;21045;-70
2022/03/09 07:44:07;;;;;;;10.33;5.07;;;;;1.90;101735.00;;;;4914270;29;20260;-69
2022/03/09 07:46:54;;;;;;;13.90;5.87;;;;;1.90;101741.00;;;;4908071;29;20613;-69
2022/03/09 07:49:41;;;;;;;14.70;5.80;;;;;1.90;101738.00;;;;4907940;29;20248;-69
2022/03/09 07:52:27;;;;;;;8.73;5.03;;;;;2.00;101739.00;;;;4910474;29;20720;-68
2022/03/09 07:55:13;;;;;;;8.80;5.00;;;;;2.10;101736.00;;;;4908135;29;20716;-69
2022/03/09 07:58:01;;;;;;;10.33;5.20;;;;;2.30;101737.00;;;;4907687;29;20301;-69
2022/03/09 08:00:47;;;;;;;5.63;4.30;;;;;2.60;101713.00;;;;4909631;29;20307;-70
2022/03/09 08:03:34;;;;;;;9.80;5.17;;;;;2.60;101734.00;;;;4907459;29;20238;-69
2022/03/09 08:06:25;;;;;;;10.43;5.27;;;;;2.90;101727.00;;;;4902973;29;20237;-70
2022/03/09 08:09:11;;;;;;;10.50;5.77;;;;;3.00;101743.00;;;;4908270;29;20280;-69
2022/03/09 08:11:57;;;;;;;8.37;5.50;;;;;3.10;101745.00;;;;4908154;29;20237;-70
2022/03/09 08:14:45;;;;;;;10.17;5.57;;;;;3.20;101746.00;;;;4906209;29;20247;-68
2022/03/09 08:17:32;;;;;;;10.10;5.43;;;;;3.30;101723.00;;;;4906481;29;20233;-69
2022/03/09 08:20:18;;;;;;;10.20;5.23;;;;;3.30;101754.00;;;;4909903;29;20243;-70
2022/03/09 08:23:04;;;;;;;12.13;5.53;;;;;3.60;101757.00;;;;4907951;29;20285;-71
2022/03/09 08:25:51;;;;;;;7.27;5.13;;;;;3.80;101753.00;;;;4909919;29;20232;-71
2022/03/09 08:28:37;;;;;;;9.53;5.43;;;;;3.80;101758.00;;;;4901925;29;20258;-70
2022/03/09 08:31:26;;;;;;;8.93;5.37;;;;;3.90;101700.00;;;;4900254;29;20311;-70
2022/03/09 08:34:12;;;;;;;17.77;5.53;;;;;4.00;101771.00;;;;4906686;29;20247;-70
2022/03/09 08:36:58;;;;;;;9.17;5.13;;;;;4.20;101765.00;;;;4907901;29;20237;-69
2022/03/09 08:39:47;;;;;;;10.30;5.30;;;;;4.30;101758.00;;;;4907670;29;20293;-69
2022/03/09 08:42:34;;;;;;;11.57;5.60;;;;;4.50;101759.00;;;;4899056;29;20237;-68
2022/03/09 08:45:20;;;;;;;12.10;6.20;;;;;4.60;101764.00;;;;4912190;29;20702;-70
2022/03/09 08:48:07;;;;;;;8.87;5.23;;;;;4.70;101764.00;;;;4911348;29;20229;-70
2022/03/09 08:50:54;;;;;;;8.83;4.80;;;;;4.90;101766.00;;;;4908079;29;20268;-69
2022/03/09 08:53:41;;;;;;;10.93;5.20;;;;;5.10;101746.00;;;;4907296;29;20237;-70
2022/03/09 08:56:28;;;;;;;9.60;5.43;;;;;5.30;101763.00;;;;4903268;29;20225;-69
2022/03/09 08:59:14;;;;;;;9.00;5.40;;;;;5.40;101756.00;;;;4906271;29;20343;-70
2022/03/09 09:02:01;;;;;;;11.10;5.63;;;;;5.60;101768.00;;;;4909500;29;20296;-69
2022/03/09 09:04:49;;;;;;;11.10;5.87;;;;;5.80;101772.00;;;;4907979;29;20233;-70
2022/03/09 09:07:36;;;;;;;9.73;5.00;;;;;5.90;101771.00;;;;4906145;29;20241;-69
2022/03/09 09:10:22;;;;;;;10.27;5.27;;;;;6.00;101768.00;;;;4899466;29;20355;-69
2022/03/09 09:13:10;;;;;;;11.27;5.13;;;;;6.10;101773.00;;;;4904152;29;20273;-71
2022/03/09 09:15:57;;;;;;;12.90;5.97;;;;;6.30;101761.00;;;;4900279;29;20289;-72
2022/03/09 09:18:47;;;;;;;14.87;6.03;;;;;6.40;101757.00;;;;4900770;29;21056;-71
2022/03/09 09:21:35;;;;;;;11.57;6.27;;;;;6.70;101756.00;;;;4904377;29;20350;-71
2022/03/09 09:24:22;;;;;;;10.97;5.83;;;;;6.70;101753.00;;;;4907644;29;20372;-69
2022/03/09 09:27:08;;;;;;;10.07;5.07;;;;;6.90;101752.00;;;;4912887;29;20321;-69
2022/03/09 09:30:12;;;;;;;10.53;5.53;;;;;7.20;101754.00;;;;4910409;29;20281;-70
2022/03/09 09:33:00;;;;;;;13.13;6.10;;;;;7.40;101751.00;;;;4911880;29;20827;-68
2022/03/09 09:35:47;;;;;;;8.43;5.40;;;;;7.70;101741.00;;;;4904434;29;20234;-69
2022/03/09 09:38:35;;;;;;;10.43;6.00;;;;;8.00;101746.00;;;;4910822;29;20241;-69
2022/03/09 09:41:25;;;;;;;12.67;6.13;;;;;8.10;101745.00;;;;4910732;29;20241;-69
2022/03/09 09:44:13;;;;;;;11.77;5.77;;;;;8.30;101749.00;;;;4910655;29;20252;-70
2022/03/09 09:46:59;;;;;;;7.83;5.20;;;;;8.40;101755.00;;;;4904747;29;20251;-72
2022/03/09 09:49:48;;;;;;;12.07;5.93;;;;;8.50;101742.00;;;;4906196;29;20239;-70
2022/03/09 09:52:36;;;;;;;9.07;6.00;;;;;8.80;101736.00;;;;4902995;29;20243;-70
2022/03/09 09:55:26;;;;;;;16.90;6.17;;;;;8.90;101740.00;;;;4907037;29;20885;-70
2022/03/09 09:58:12;;;;;;;9.73;5.40;;;;;9.10;101736.00;;;;4909596;29;20237;-71
2022/03/09 10:00:58;;;;;;;9.77;6.03;;;;;9.20;101742.00;;;;4910275;29;20367;-69
2022/03/09 10:03:45;;;;;;;12.17;6.47;;;;;9.50;101746.00;;;;4910200;29;20593;-69
2022/03/09 10:06:32;;;;;;;13.27;6.10;;;;;9.70;101745.00;;;;4909100;29;20240;-69
2022/03/09 10:09:19;;;;;;;10.50;5.93;;;;;10.00;101737.00;;;;4925124;29;20236;-69
2022/03/09 10:12:08;;;;;;;10.17;5.60;;;;;10.10;101752.00;;;;4929101;29;20246;-67
2022/03/09 10:14:54;;;;;;;12.17;6.00;;;;;10.40;101745.00;;;;4933773;29;20754;-71
2022/03/09 10:17:41;;;;;;;9.23;6.10;;;;;10.50;101728.00;;;;4927949;29;20254;-70
2022/03/09 10:20:30;;;;;;;11.63;5.90;;;;;10.80;101750.00;;;;4926649;29;20286;-70
2022/03/09 10:23:21;;;;;;;10.90;6.03;;;;;10.80;101736.00;;;;4934262;29;20297;-69
2022/03/09 10:26:07;;;;;;;10.30;6.23;;;;;11.00;101745.00;;;;4932724;29;20387;-71
2022/03/09 10:29:00;;;;;;;10.73;6.10;;;;;11.20;101737.00;;;;4925541;29;20238;-70
2022/03/09 10:31:49;;;;;;;13.70;6.07;;;;;11.10;101735.00;;;;4913758;29;20293;-70
2022/03/09 10:34:48;;;;;;;11.67;6.43;;;;;11.30;101724.00;;;;4908384;29;20709;-71
2022/03/09 10:37:38;;;;;;;11.30;5.70;;;;;11.30;101731.00;;;;4894564;29;20246;-72
2022/03/09 10:40:25;;;;;;;14.97;6.57;;;;;11.40;101733.00;;;;4906832;29;20373;-71
2022/03/09 10:43:12;;;;;;;11.87;6.40;;;;;11.60;101736.00;;;;4911395;29;20299;-70
2022/03/09 10:46:02;;;;;;;10.80;5.93;;;;;11.50;101735.00;;;;4913017;29;20921;-71
2022/03/09 10:48:53;;;;;;;8.97;5.67;;;;;11.70;101732.00;;;;4911968;29;20736;-72
2022/03/09 10:51:42;;;;;;;10.50;5.77;;;;;11.90;101740.00;;;;4903233;29;20518;-71
2022/03/09 10:54:32;;;;;;;10.03;5.67;;;;;12.10;101722.00;;;;4908711;29;20798;-67
2022/03/09 10:57:18;;;;;;;8.90;5.37;;;;;12.20;101739.00;;;;4911081;29;20356;-71
2022/03/09 11:00:06;;;;;;;12.07;6.20;;;;;12.20;101728.00;;;;4911033;29;20237;-70
2022/03/09 11:02:54;;;;;;;10.93;6.30;;;;;12.40;101721.00;;;;4909157;29;20241;-69
2022/03/09 11:05:50;;;;;;;11.37;6.37;;;;;12.80;101727.00;;;;4905057;29;20240;-71
2022/03/09 11:08:39;;;;;;;11.77;6.43;;;;;12.90;101724.00;;;;4901792;29;20713;-72
2022/03/09 11:11:25;;;;;;;12.97;6.00;;;;;12.90;101732.00;;;;4911098;29;20306;-73
2022/03/09 11:14:13;;;;;;;10.57;5.70;;;;;13.10;101726.00;;;;4910326;29;20237;-75
2022/03/09 11:17:00;;;;;;;15.97;6.43;;;;;13.10;101720.00;;;;4909078;29;20237;-68
2022/03/09 11:19:49;;;;;;;10.77;6.57;;;;;13.20;101724.00;;;;4905578;29;20752;-69
2022/03/09 11:22:35;;;;;;;13.10;6.27;;;;;13.40;101717.00;;;;4906164;29;20233;-69
2022/03/09 11:25:24;;;;;;;10.93;6.17;;;;;13.80;101726.00;;;;4900797;29;20916;-68
2022/03/09 11:28:12;;;;;;;10.07;5.60;;;;;13.80;101726.00;;;;4899386;29;20248;-68
2022/03/09 11:31:01;;;;;;;8.53;5.97;;;;;13.80;101725.00;;;;4901496;29;20239;-68
2022/03/09 11:33:50;;;;;;;9.50;6.13;;;;;14.00;101712.00;;;;4905352;29;20746;-68
2022/03/09 11:36:41;;;;;;;9.70;6.53;;;;;13.90;101717.00;;;;4907855;29;20269;-68
2022/03/09 11:39:32;;;;;;;13.33;6.17;;;;;13.80;101712.00;;;;4894661;29;20666;-69
2022/03/09 11:42:31;;;;;;;11.87;6.03;;;;;14.00;101705.00;;;;4895233;29;20624;-69
2022/03/09 11:45:49;;;;;;;10.60;6.30;;;;;14.20;101710.00;;;;4911152;29;20245;-69
2022/03/09 11:48:53;;;;;;;12.97;6.20;;;;;14.40;101713.00;;;;4900848;29;20361;-69
2022/03/09 11:52:08;;;;;;;10.00;6.20;;;;;14.30;101705.00;;;;4906242;29;20245;-67
2022/03/09 11:54:56;;;;;;;10.17;6.03;;;;;14.40;101702.00;;;;4908363;29;20289;-66
2022/03/09 11:58:07;;;;;;;11.30;6.23;;;;;14.50;101696.00;;;;4906087;29;20282;-69
2022/03/09 12:01:04;;;;;;;9.97;5.77;;;;;14.70;101702.00;;;;4904576;29;20272;-68
2022/03/09 12:03:51;;;;;;;9.13;5.60;;;;;14.80;101699.00;;;;4903192;29;20237;-68
2022/03/09 12:06:43;;;;;;;10.43;5.33;;;;;15.20;101710.00;;;;4908190;29;20316;-69
2022/03/09 12:09:59;;;;;;;10.40;6.10;;;;;15.00;101705.00;;;;4910215;29;20293;-68
2022/03/09 12:13:25;;;;;;;10.63;5.73;;;;;15.00;101700.00;;;;4902276;29;20317;-69
2022/03/09 12:16:16;;;;;;;9.27;5.63;;;;;15.10;101698.00;;;;4896823;29;20247;-69
2022/03/09 12:19:12;;;;;;;9.77;6.00;;;;;15.50;101708.00;;;;4906366;29;20239;-64
2022/03/09 12:22:04;;;;;;;10.00;5.70;;;;;15.50;101687.00;;;;4897929;29;20241;-70
2022/03/09 12:24:50;;;;;;;11.20;6.20;;;;;15.40;101706.00;;;;4888185;29;20252;-69
2022/03/09 12:27:39;;;;;;;9.10;6.17;;;;;15.70;101707.00;;;;4889477;29;20715;-69
2022/03/09 12:30:38;;;;;;;9.73;6.13;;;;;15.60;101699.00;;;;4904903;29;20370;-68
2022/03/09 12:33:27;;;;;;;10.30;6.03;;;;;15.70;101706.00;;;;4902468;29;20237;-69
2022/03/09 12:36:15;;;;;;;9.10;5.87;;;;;15.60;101702.00;;;;4893181;29;20251;-70
2022/03/09 12:39:16;;;;;;;11.57;6.10;;;;;15.60;101701.00;;;;4904540;29;20246;-69
2022/03/09 12:42:04;;;;;;;11.13;6.80;;;;;15.80;101705.00;;;;4907434;29;20243;-70
2022/03/09 12:44:53;;;;;;;8.37;5.83;;;;;16.00;101709.00;;;;4901414;29;20277;-66
2022/03/09 12:47:39;;;;;;;10.37;5.93;;;;;15.90;101713.00;;;;4907665;29;20345;-70
2022/03/09 12:50:25;;;;;;;12.20;6.40;;;;;15.90;101703.00;;;;4907691;29;20732;-71
2022/03/09 12:53:12;;;;;;;10.30;6.47;;;;;16.00;101709.00;;;;4907225;29;20873;-68
2022/03/09 12:56:13;;;;;;;8.93;6.10;;;;;16.00;101705.00;;;;4906287;29;20288;-70
2022/03/09 12:59:19;;;;;;;10.10;6.23;;;;;16.00;101707.00;;;;4911099;29;20256;-70
2022/03/09 13:02:05;;;;;;;14.27;6.43;;;;;16.10;101703.00;;;;4918869;29;20237;-71
2022/03/09 13:04:56;;;;;;;10.60;6.90;;;;;16.00;101713.00;;;;4908890;29;20333;-70
2022/03/09 13:07:56;;;;;;;13.00;6.20;;;;;16.00;101698.00;;;;4906961;29;20234;-71
2022/03/09 13:10:45;;;;;;;10.57;5.97;;;;;16.20;101693.00;;;;4913509;29;20236;-72
2022/03/09 13:13:33;;;;;;;12.17;5.97;;;;;16.30;101689.00;;;;4910871;29;20238;-71
2022/03/09 13:16:22;;;;;;;12.23;6.33;;;;;16.60;101692.00;;;;4911228;29;20312;-71
2022/03/09 13:19:08;;;;;;;9.83;6.10;;;;;16.70;101674.00;;;;4910473;29;20233;-70
2022/03/09 13:21:55;;;;;;;10.00;5.93;;;;;16.40;101682.00;;;;4910310;29;20229;-70
2022/03/09 13:24:41;;;;;;;12.07;6.37;;;;;16.70;101681.00;;;;4903647;29;20229;-71
2022/03/09 13:27:28;;;;;;;9.43;6.00;;;;;16.90;101678.00;;;;4912692;29;20241;-70
2022/03/09 13:30:19;;;;;;;10.10;6.17;;;;;17.00;101668.00;;;;4910472;29;20241;-70
2022/03/09 13:33:14;;;;;;;9.83;5.80;;;;;16.80;101687.00;;;;4910570;29;20349;-71
2022/03/09 13:36:01;;;;;;;9.13;6.07;;;;;17.00;101682.00;;;;4905921;29;20245;-71
2022/03/09 13:38:58;;;;;;;9.93;6.57;;;;;17.00;101683.00;;;;4903775;29;20305;-70
2022/03/09 13:41:47;;;;;;;11.43;6.23;;;;;17.00;101682.00;;;;4904199;29;20238;-71
2022/03/09 13:44:34;;;;;;;10.07;6.70;;;;;17.20;101671.00;;;;4910037;29;20237;-69
2022/03/09 13:47:22;;;;;;;11.33;6.20;;;;;17.40;101672.00;;;;4912629;29;20295;-67
2022/03/09 13:50:17;;;;;;;11.97;6.23;;;;;17.30;101672.00;;;;4911117;29;20315;-71
2022/03/09 13:53:11;;;;;;;12.60;6.03;;;;;17.40;101672.00;;;;4905770;29;20810;-71